createdAt,value
2023-05-12T00:01:25.342Z,4.60
2023-05-12T00:03:53.827Z,5.60
2023-05-12T00:06:21.143Z,6.07
2023-05-12T00:08:47.860Z,5.85
2023-05-12T00:11:14.653Z,5.82
2023-05-12T00:13:41.429Z,5.82
2023-05-12T00:16:08.991Z,5.20
2023-05-12T00:18:35.775Z,5.07
2023-05-12T00:21:02.482Z,4.95
2023-05-12T00:23:29.213Z,4.80
2023-05-12T00:25:55.847Z,5.18
2023-05-12T00:28:22.571Z,4.80
2023-05-12T00:30:49.290Z,5.20
2023-05-12T00:33:17.172Z,5.40
2023-05-12T00:35:45.595Z,5.35
2023-05-12T00:38:13.105Z,5.07
2023-05-12T00:40:40.796Z,5.70
2023-05-12T00:43:08.492Z,5.25
2023-05-12T00:45:35.651Z,5.07
2023-05-12T00:48:03.548Z,5.57
2023-05-12T00:50:30.574Z,5.30
2023-05-12T00:52:58.694Z,5.38
2023-05-12T00:55:26.519Z,5.35
2023-05-12T00:57:53.482Z,6.00
2023-05-12T01:00:20.679Z,6.43
2023-05-12T01:02:48.019Z,5.43
2023-05-12T01:05:14.746Z,6.22
2023-05-12T01:07:42.632Z,5.90
2023-05-12T01:10:20.394Z,5.63
2023-05-12T01:12:48.541Z,6.22
2023-05-12T01:15:15.538Z,5.40
2023-05-12T01:17:50.112Z,6.35
2023-05-12T01:20:20.911Z,5.97
2023-05-12T01:22:49.213Z,6.18
2023-05-12T01:25:17.078Z,5.60
2023-05-12T01:27:44.867Z,5.65
2023-05-12T01:30:15.990Z,5.47
2023-05-12T01:32:43.558Z,5.65
2023-05-12T01:35:10.696Z,4.93
2023-05-12T01:37:37.489Z,4.38
2023-05-12T01:40:04.712Z,5.20
2023-05-12T01:42:31.389Z,4.40
2023-05-12T01:44:58.068Z,5.30
2023-05-12T01:47:24.861Z,3.85
2023-05-12T01:49:52.586Z,4.55
2023-05-12T01:52:20.401Z,4.22
2023-05-12T01:54:47.121Z,3.90
2023-05-12T01:57:13.793Z,4.10
2023-05-12T01:59:40.698Z,3.40
2023-05-12T02:02:07.703Z,3.78
2023-05-12T02:04:34.705Z,4.00
2023-05-12T02:07:01.931Z,3.53
2023-05-12T02:09:28.701Z,3.70
2023-05-12T02:11:55.615Z,3.33
2023-05-12T02:14:22.335Z,3.45
2023-05-12T02:16:52.712Z,3.42
2023-05-12T02:19:20.853Z,3.10
2023-05-12T02:21:48.330Z,2.88
2023-05-12T02:24:16.901Z,3.17
2023-05-12T02:26:43.716Z,3.15
2023-05-12T02:29:11.531Z,2.55
2023-05-12T02:31:38.596Z,2.90
2023-05-12T02:34:06.761Z,2.65
2023-05-12T02:36:33.777Z,2.60
2023-05-12T02:39:00.549Z,2.63
2023-05-12T02:41:27.351Z,2.63
2023-05-12T02:43:54.127Z,2.00
2023-05-12T02:46:20.986Z,2.35
2023-05-12T02:48:47.769Z,2.28
2023-05-12T02:51:14.523Z,1.90
2023-05-12T02:53:41.356Z,1.83
2023-05-12T02:56:08.179Z,2.45
2023-05-12T02:58:35.253Z,2.17
2023-05-12T03:01:09.896Z,2.30
2023-05-12T03:03:38.190Z,2.28
2023-05-12T03:06:06.438Z,2.30
2023-05-12T03:08:33.297Z,2.25
2023-05-12T03:11:00.607Z,2.20
2023-05-12T03:13:27.274Z,2.10
2023-05-12T03:15:54.414Z,2.30
2023-05-12T03:18:21.276Z,2.70
2023-05-12T03:20:48.339Z,2.53
2023-05-12T03:23:15.030Z,2.45
2023-05-12T03:25:41.971Z,2.50
2023-05-12T03:28:08.759Z,2.80
2023-05-12T03:30:35.447Z,2.70
2023-05-12T03:33:02.141Z,2.90
2023-05-12T03:35:29.157Z,3.20
2023-05-12T03:37:56.182Z,3.17
2023-05-12T03:40:23.183Z,2.72
2023-05-12T03:42:50.124Z,3.30
2023-05-12T03:45:16.774Z,3.03
2023-05-12T03:47:43.602Z,3.63
2023-05-12T03:50:11.239Z,3.85
2023-05-12T03:52:38.549Z,3.15
2023-05-12T03:55:06.971Z,3.70
2023-05-12T03:57:36.364Z,3.63
2023-05-12T04:00:06.725Z,3.15
2023-05-12T04:02:33.470Z,3.60
2023-05-12T04:05:00.641Z,3.58
2023-05-12T04:07:27.641Z,4.00
2023-05-12T04:09:54.285Z,4.00
2023-05-12T04:12:21.016Z,3.88
2023-05-12T04:14:48.233Z,3.70
2023-05-12T04:17:15.219Z,3.85
2023-05-12T04:19:41.968Z,3.65
2023-05-12T04:22:08.658Z,4.43
2023-05-12T04:24:37.698Z,4.03
2023-05-12T04:27:05.097Z,4.47
2023-05-12T04:29:31.814Z,4.05
2023-05-12T04:31:59.987Z,4.20
2023-05-12T04:34:26.807Z,4.25
2023-05-12T04:36:53.538Z,4.00
2023-05-12T04:39:20.263Z,3.83
2023-05-12T04:41:46.980Z,4.18
2023-05-12T04:44:13.780Z,4.32
2023-05-12T04:46:40.606Z,4.45
2023-05-12T04:49:07.485Z,4.72
2023-05-12T04:51:34.385Z,4.15
2023-05-12T04:54:01.271Z,4.28
2023-05-12T04:56:28.205Z,4.20
2023-05-12T04:58:54.902Z,4.28
2023-05-12T05:01:21.870Z,5.00
2023-05-12T05:03:48.817Z,4.55
2023-05-12T05:06:15.729Z,4.50
2023-05-12T05:08:42.432Z,4.13
2023-05-12T05:11:09.381Z,4.30
2023-05-12T05:13:36.091Z,3.95
2023-05-12T05:16:02.840Z,4.05
2023-05-12T05:18:29.712Z,4.22
2023-05-12T05:20:58.819Z,3.90
2023-05-12T05:23:26.327Z,4.20
2023-05-12T05:25:53.220Z,4.78
2023-05-12T05:28:19.968Z,4.40
2023-05-12T05:30:46.651Z,4.00
2023-05-12T05:33:13.538Z,4.57
2023-05-12T05:35:40.661Z,4.22
2023-05-12T05:38:07.417Z,4.65
2023-05-12T05:40:48.851Z,4.68
2023-05-12T05:43:19.390Z,4.88
2023-05-12T05:45:46.049Z,4.78
2023-05-12T05:48:12.841Z,4.78
2023-05-12T05:50:39.643Z,4.45
2023-05-12T05:53:06.787Z,4.65
2023-05-12T05:55:33.583Z,4.60
2023-05-12T05:58:00.342Z,4.88
2023-05-12T06:00:27.287Z,5.00
2023-05-12T06:02:54.107Z,4.82
2023-05-12T06:05:21.178Z,4.97
2023-05-12T06:07:48.123Z,4.25
2023-05-12T06:10:14.818Z,5.15
2023-05-12T06:12:41.549Z,4.55
2023-05-12T06:15:08.816Z,4.82
2023-05-12T06:17:35.648Z,5.15
2023-05-12T06:20:02.962Z,4.85
2023-05-12T06:22:29.711Z,4.53
2023-05-12T06:24:56.397Z,4.97
2023-05-12T06:27:23.483Z,4.30
2023-05-12T06:29:51.597Z,4.80
2023-05-12T06:32:19.028Z,4.25
2023-05-12T06:34:45.798Z,4.85
2023-05-12T06:37:12.813Z,4.72
2023-05-12T06:39:39.598Z,4.70
2023-05-12T06:42:06.478Z,4.53
2023-05-12T06:44:33.353Z,4.80
2023-05-12T06:47:00.065Z,4.78
2023-05-12T06:49:26.786Z,4.95
2023-05-12T06:51:53.506Z,4.60
2023-05-12T06:54:20.212Z,4.88
2023-05-12T06:56:47.174Z,5.15
2023-05-12T06:59:14.250Z,5.60
2023-05-12T07:01:42.936Z,4.68
2023-05-12T07:04:09.774Z,4.72
2023-05-12T07:06:36.572Z,5.00
2023-05-12T07:09:03.781Z,4.65
2023-05-12T07:11:31.000Z,5.40
2023-05-12T07:13:57.916Z,5.35
2023-05-12T07:16:24.918Z,4.97
2023-05-12T07:18:51.789Z,4.60
2023-05-12T07:21:18.751Z,5.00
2023-05-12T07:23:45.673Z,5.03
2023-05-12T07:26:12.436Z,5.28
2023-05-12T07:28:39.082Z,5.10
2023-05-12T07:31:07.488Z,5.00
2023-05-12T07:33:36.324Z,4.80
2023-05-12T07:36:04.793Z,5.53
2023-05-12T07:38:32.063Z,5.80
2023-05-12T07:41:00.147Z,5.97
2023-05-12T07:43:27.260Z,6.00
2023-05-12T07:45:55.958Z,5.78
2023-05-12T07:48:22.673Z,5.55
2023-05-12T07:50:49.378Z,6.63
2023-05-12T07:53:16.140Z,5.97
2023-05-12T07:55:43.968Z,5.70
2023-05-12T07:58:11.830Z,5.72
2023-05-12T08:00:38.912Z,5.68
2023-05-12T08:03:07.524Z,5.72
2023-05-12T08:05:34.497Z,6.18
2023-05-12T08:08:01.351Z,5.88
2023-05-12T08:10:29.875Z,5.82
2023-05-12T08:12:56.676Z,5.78
2023-05-12T08:15:23.611Z,6.93
2023-05-12T08:17:50.435Z,6.60
2023-05-12T08:20:18.468Z,6.20
2023-05-12T08:22:47.693Z,6.75
2023-05-12T08:25:14.728Z,6.45
2023-05-12T08:27:41.777Z,6.63
2023-05-12T08:30:09.687Z,6.40
2023-05-12T08:32:36.824Z,6.50
2023-05-12T08:35:04.050Z,6.63
2023-05-12T08:37:33.722Z,6.88
2023-05-12T08:40:01.559Z,6.80
2023-05-12T08:42:42.611Z,7.07
2023-05-12T08:45:11.205Z,6.88
2023-05-12T08:47:38.291Z,7.40
2023-05-12T08:50:06.050Z,7.75
2023-05-12T08:52:34.383Z,6.85
2023-05-12T08:55:03.255Z,6.80
2023-05-12T08:57:30.951Z,6.70
2023-05-12T08:59:59.520Z,6.70
2023-05-12T09:02:35.219Z,6.55
2023-05-12T09:05:13.353Z,6.18
2023-05-12T09:07:46.063Z,6.68
2023-05-12T09:10:29.954Z,6.38
2023-05-12T09:13:23.939Z,6.07
2023-05-12T09:15:54.149Z,5.93
2023-05-12T09:18:21.029Z,6.55
2023-05-12T09:20:47.884Z,6.03
2023-05-12T09:23:20.518Z,6.80
2023-05-12T09:25:48.083Z,6.80
2023-05-12T09:28:14.854Z,6.15
2023-05-12T09:30:42.590Z,6.70
2023-05-12T09:33:11.780Z,6.07
2023-05-12T09:35:43.803Z,6.97
2023-05-12T09:38:12.145Z,6.40
2023-05-12T09:40:39.226Z,6.68
2023-05-12T09:43:07.871Z,6.38
2023-05-12T09:45:36.446Z,6.43
2023-05-12T09:48:13.875Z,6.30
2023-05-12T09:50:49.147Z,6.32
2023-05-12T09:53:23.101Z,6.60
2023-05-12T09:55:50.137Z,5.85
2023-05-12T09:58:19.974Z,5.63
2023-05-12T10:03:18.162Z,5.68
2023-05-12T10:06:01.543Z,6.25
2023-05-12T10:08:34.415Z,7.10
2023-05-12T10:11:02.492Z,7.03
2023-05-12T10:13:29.441Z,6.28
2023-05-12T10:15:57.618Z,6.07
2023-05-12T10:18:25.483Z,6.20
2023-05-12T10:20:53.819Z,6.18
2023-05-12T10:23:21.254Z,6.18
2023-05-12T10:25:49.662Z,6.75
2023-05-12T10:28:17.377Z,6.65
2023-05-12T10:30:45.391Z,6.13
2023-05-12T10:33:12.437Z,5.22
2023-05-12T10:35:42.612Z,5.85
2023-05-12T10:38:12.005Z,5.10
2023-05-12T10:41:01.046Z,4.55
2023-05-12T10:43:30.023Z,4.68
2023-05-12T10:46:10.212Z,5.30
2023-05-12T10:48:48.967Z,5.28
2023-05-12T10:51:23.959Z,5.50
2023-05-12T10:53:58.586Z,4.97
2023-05-12T10:56:28.483Z,4.83
2023-05-12T10:59:08.326Z,4.18
2023-05-12T11:01:36.129Z,3.60
2023-05-12T11:04:16.573Z,3.10
2023-05-12T11:06:45.142Z,2.75
2023-05-12T11:09:13.612Z,2.20
2023-05-12T11:11:40.989Z,3.00
2023-05-12T11:14:09.567Z,3.17
2023-05-12T11:16:43.368Z,2.85
2023-05-12T11:19:10.514Z,3.50
2023-05-12T11:21:38.509Z,3.28
2023-05-12T11:24:05.463Z,3.78
2023-05-12T11:26:33.813Z,3.65
2023-05-12T11:29:03.758Z,3.80
2023-05-12T11:31:30.531Z,3.35
2023-05-12T11:34:12.977Z,3.20
2023-05-12T11:36:42.506Z,3.33
2023-05-12T11:39:23.054Z,3.33
2023-05-12T11:41:54.611Z,3.20
2023-05-12T11:44:26.259Z,3.22
2023-05-12T11:47:15.777Z,3.55
2023-05-12T11:49:49.825Z,3.60
2023-05-12T11:52:18.422Z,3.55
2023-05-12T11:55:11.493Z,4.68
2023-05-12T11:57:38.378Z,4.70
2023-05-12T12:00:09.624Z,4.78
2023-05-12T12:02:43.228Z,4.75
2023-05-12T12:05:18.041Z,4.18
2023-05-12T12:07:45.132Z,2.20
2023-05-12T12:10:16.894Z,2.80
2023-05-12T12:12:45.384Z,2.30
2023-05-12T12:15:13.109Z,2.03
2023-05-12T12:17:40.917Z,1.73
2023-05-12T12:20:09.007Z,1.60
2023-05-12T12:22:36.344Z,1.23
2023-05-12T12:25:03.717Z,1.13
2023-05-12T12:27:30.660Z,1.40
2023-05-12T12:29:57.594Z,1.38
2023-05-12T12:32:24.326Z,1.10
2023-05-12T12:34:51.928Z,0.90
2023-05-12T12:37:19.054Z,1.00
2023-05-12T12:39:47.608Z,0.93
2023-05-12T12:42:15.475Z,0.80
2023-05-12T12:44:42.589Z,0.85
2023-05-12T12:47:09.595Z,0.60
2023-05-12T12:49:36.320Z,0.57
2023-05-12T12:52:03.474Z,0.60
2023-05-12T12:54:30.261Z,0.77
2023-05-12T12:56:56.962Z,0.60
2023-05-12T12:59:23.890Z,0.57
2023-05-12T13:01:50.695Z,0.70
2023-05-12T13:04:22.161Z,0.60
2023-05-12T13:06:49.007Z,5.65
2023-05-12T13:09:16.961Z,1.63
2023-05-12T13:11:44.989Z,0.75
2023-05-12T13:14:11.713Z,0.70
2023-05-12T13:16:38.819Z,0.73
2023-05-12T13:19:05.615Z,0.95
2023-05-12T13:21:32.417Z,0.80
2023-05-12T13:23:59.122Z,0.60
2023-05-12T13:26:25.999Z,0.70
2023-05-12T13:28:52.760Z,1.00
2023-05-12T13:31:19.539Z,1.13
2023-05-12T13:33:46.280Z,0.82
2023-05-12T13:36:13.570Z,0.85
2023-05-12T13:38:40.748Z,0.85
2023-05-12T13:41:07.425Z,0.68
2023-05-12T13:43:35.090Z,0.80
2023-05-12T13:46:01.836Z,0.65
2023-05-12T13:48:28.501Z,0.70
2023-05-12T13:50:55.331Z,0.90
2023-05-12T13:53:22.026Z,0.80
2023-05-12T13:55:48.788Z,0.68
2023-05-12T13:58:15.550Z,0.65
2023-05-12T14:00:42.217Z,0.70
2023-05-12T14:03:08.962Z,0.90
2023-05-12T14:05:35.899Z,1.00
2023-05-12T14:08:02.562Z,0.90
2023-05-12T14:10:29.212Z,0.77
2023-05-12T14:12:55.976Z,0.70
2023-05-12T14:15:36.093Z,0.60
2023-05-12T14:18:07.404Z,0.80
2023-05-12T14:20:34.332Z,0.80
2023-05-12T14:23:01.696Z,0.73
2023-05-12T14:25:30.740Z,0.80
2023-05-12T14:27:57.484Z,0.98
2023-05-12T14:30:24.517Z,0.70
2023-05-12T14:32:53.304Z,0.80
2023-05-12T14:35:20.452Z,1.00
2023-05-12T14:37:47.266Z,0.70
2023-05-12T14:40:14.275Z,1.00
2023-05-12T14:42:42.267Z,0.73
2023-05-12T14:45:09.428Z,0.80
2023-05-12T14:47:37.010Z,0.90
2023-05-12T14:50:03.984Z,1.10
2023-05-12T14:52:33.769Z,1.10
2023-05-12T14:55:00.767Z,1.20
2023-05-12T14:57:27.428Z,1.00
2023-05-12T14:59:58.622Z,0.90
2023-05-12T15:02:25.525Z,1.00
2023-05-12T15:04:52.258Z,1.35
2023-05-12T15:07:18.912Z,1.00
2023-05-12T15:09:45.690Z,0.80
2023-05-12T15:12:12.373Z,0.90
2023-05-12T15:14:39.118Z,1.10
2023-05-12T15:17:05.860Z,0.90
2023-05-12T15:19:32.640Z,0.82
2023-05-12T15:21:59.793Z,0.93
2023-05-12T15:24:26.785Z,1.20
2023-05-12T15:26:53.456Z,0.93
2023-05-12T15:29:20.749Z,0.90
2023-05-12T15:31:49.318Z,1.25
2023-05-12T15:34:16.611Z,1.10
2023-05-12T15:36:45.494Z,1.20
2023-05-12T15:39:13.379Z,0.98
2023-05-12T15:41:40.071Z,1.13
2023-05-12T15:44:06.822Z,1.17
2023-05-12T15:46:33.613Z,1.10
2023-05-12T15:49:00.468Z,1.02
2023-05-12T15:51:28.409Z,1.40
2023-05-12T15:53:55.159Z,1.10
2023-05-12T15:56:22.916Z,1.10
2023-05-12T15:58:49.611Z,1.40
2023-05-12T16:01:16.353Z,1.40
2023-05-12T16:03:43.168Z,1.30
2023-05-12T16:06:09.921Z,1.40
2023-05-12T16:08:36.745Z,1.60
2023-05-12T16:11:03.433Z,1.45
2023-05-12T16:13:30.593Z,1.73
2023-05-12T16:15:57.296Z,1.60
2023-05-12T16:18:24.143Z,1.70
2023-05-12T16:20:51.039Z,1.75
2023-05-12T16:23:18.178Z,1.33
2023-05-12T16:25:48.174Z,1.60
2023-05-12T16:28:14.951Z,1.60
2023-05-12T16:30:42.021Z,1.90
2023-05-12T16:33:08.733Z,1.80
2023-05-12T16:35:36.051Z,1.60
2023-05-12T16:38:03.406Z,1.40
2023-05-12T16:40:30.208Z,1.40
2023-05-12T16:42:56.952Z,1.67
2023-05-12T16:45:24.422Z,1.50
2023-05-12T16:47:51.367Z,1.70
2023-05-12T16:50:18.434Z,1.73
2023-05-12T16:52:45.369Z,1.50
2023-05-12T16:55:12.168Z,1.63
2023-05-12T16:57:40.415Z,1.50
2023-05-12T17:00:09.782Z,1.60
2023-05-12T17:02:36.631Z,1.48
2023-05-12T17:05:03.472Z,1.75
2023-05-12T17:07:31.284Z,1.80
2023-05-12T17:09:58.099Z,1.67
2023-05-12T17:12:24.916Z,1.90
2023-05-12T17:15:03.446Z,1.27
2023-05-12T17:17:33.617Z,1.60
2023-05-12T17:20:00.614Z,1.73
2023-05-12T17:22:27.970Z,1.70
2023-05-12T17:24:54.698Z,1.67
2023-05-12T17:27:21.552Z,1.70
2023-05-12T17:29:48.267Z,1.50
2023-05-12T17:32:15.103Z,1.50
2023-05-12T17:34:41.829Z,1.45
2023-05-12T17:37:08.510Z,1.60
2023-05-12T17:39:35.319Z,1.42
2023-05-12T17:42:02.229Z,1.30
2023-05-12T17:44:30.013Z,1.60
2023-05-12T17:46:56.892Z,1.50
2023-05-12T17:49:23.936Z,1.70
2023-05-12T17:51:50.721Z,1.40
2023-05-12T17:54:17.398Z,1.35
2023-05-12T17:56:44.906Z,1.77
2023-05-12T17:59:12.366Z,1.40
2023-05-12T18:01:39.494Z,1.75
2023-05-12T18:04:06.457Z,1.80
2023-05-12T18:06:33.838Z,1.80
2023-05-12T18:09:00.532Z,1.65
2023-05-12T18:11:29.133Z,2.00
2023-05-12T18:13:56.039Z,2.00
2023-05-12T18:16:29.064Z,2.15
2023-05-12T18:18:56.899Z,2.40
2023-05-12T18:21:23.798Z,2.22
2023-05-12T18:23:50.499Z,2.30
2023-05-12T18:26:17.549Z,2.30
2023-05-12T18:28:44.204Z,2.42
2023-05-12T18:33:40.896Z,2.33
2023-05-12T18:36:08.044Z,2.33
2023-05-12T18:38:34.867Z,2.40
2023-05-12T18:41:01.921Z,2.10
2023-05-12T18:43:28.710Z,2.47
2023-05-12T18:45:55.359Z,2.22
2023-05-12T18:48:22.160Z,2.33
2023-05-12T18:50:48.934Z,2.13
2023-05-12T18:53:16.014Z,2.38
2023-05-12T18:55:42.983Z,2.28
2023-05-12T18:58:09.702Z,2.88
2023-05-12T19:00:36.476Z,2.42
2023-05-12T19:03:03.789Z,2.40
2023-05-12T19:05:30.748Z,2.85
2023-05-12T19:07:57.477Z,2.47
2023-05-12T19:10:24.270Z,2.47
2023-05-12T19:12:51.078Z,2.28
2023-05-12T19:15:17.857Z,2.63
2023-05-12T19:17:44.636Z,2.88
2023-05-12T19:20:11.636Z,2.50
2023-05-12T19:22:38.395Z,2.55
2023-05-12T19:25:06.057Z,2.80
2023-05-12T19:27:33.036Z,2.70
2023-05-12T19:30:02.497Z,2.95
2023-05-12T19:32:30.745Z,3.03
2023-05-12T19:34:57.668Z,2.78
2023-05-12T19:37:25.421Z,3.00
2023-05-12T19:39:53.900Z,2.70
2023-05-12T19:42:21.394Z,3.55
2023-05-12T19:44:48.197Z,3.45
2023-05-12T19:47:15.296Z,3.28
2023-05-12T19:49:42.104Z,3.30
2023-05-12T19:52:09.552Z,3.22
2023-05-12T19:54:37.135Z,3.40
2023-05-12T19:57:04.044Z,3.53
2023-05-12T19:59:30.697Z,3.47
2023-05-12T20:01:57.497Z,3.42
2023-05-12T20:04:25.348Z,3.60
2023-05-12T20:06:53.837Z,3.83
2023-05-12T20:09:25.875Z,4.13
2023-05-12T20:11:53.005Z,4.13
2023-05-12T20:14:19.826Z,4.82
2023-05-12T20:16:46.573Z,4.32
2023-05-12T20:19:13.291Z,4.38
2023-05-12T20:21:41.543Z,4.50
2023-05-12T20:24:08.906Z,4.20
2023-05-12T20:26:36.248Z,3.72
2023-05-12T20:29:03.234Z,3.92
2023-05-12T20:31:30.241Z,3.60
2023-05-12T20:33:57.193Z,3.60
2023-05-12T20:36:23.899Z,3.40
2023-05-12T20:38:50.897Z,3.20
2023-05-12T20:41:17.588Z,3.60
2023-05-12T20:43:45.889Z,2.95
2023-05-12T20:46:12.961Z,3.20
2023-05-12T20:48:39.801Z,2.78
2023-05-12T20:51:13.576Z,2.92
2023-05-12T20:53:40.424Z,2.85
2023-05-12T20:56:08.530Z,2.58
2023-05-12T20:58:35.629Z,2.78
2023-05-12T21:01:02.317Z,2.78
2023-05-12T21:03:29.157Z,2.78
2023-05-12T21:05:56.045Z,3.30
2023-05-12T21:08:22.736Z,3.00
2023-05-12T21:10:49.477Z,2.97
2023-05-12T21:13:16.215Z,3.42
2023-05-12T21:15:42.916Z,3.33
2023-05-12T21:18:09.847Z,3.17
2023-05-12T21:20:36.652Z,3.50
2023-05-12T21:23:03.359Z,3.45
2023-05-12T21:25:30.074Z,3.28
2023-05-12T21:27:56.808Z,3.38
2023-05-12T21:30:23.689Z,3.80
2023-05-12T21:32:50.524Z,3.65
2023-05-12T21:35:17.358Z,3.42
2023-05-12T21:37:45.184Z,3.45
2023-05-12T21:40:12.309Z,4.25
2023-05-12T21:42:38.996Z,3.40
2023-05-12T21:45:06.565Z,4.00
2023-05-12T21:47:33.410Z,3.35
2023-05-12T21:50:00.474Z,3.20
2023-05-12T21:52:28.018Z,4.10
2023-05-12T21:54:54.696Z,3.65
2023-05-12T21:57:21.672Z,3.30
2023-05-12T21:59:48.358Z,2.83
2023-05-12T22:02:15.104Z,2.88
2023-05-12T22:04:42.073Z,2.88
2023-05-12T22:07:08.736Z,3.05
2023-05-12T22:09:35.556Z,3.20
2023-05-12T22:12:02.322Z,2.70
2023-05-12T22:14:29.027Z,2.40
2023-05-12T22:16:56.229Z,2.90
2023-05-12T22:19:23.094Z,2.42
2023-05-12T22:21:50.419Z,2.60
2023-05-12T22:24:17.076Z,2.20
2023-05-12T22:26:44.066Z,2.10
2023-05-12T22:29:10.801Z,2.20
2023-05-12T22:31:37.569Z,2.20
2023-05-12T22:34:04.414Z,2.10
2023-05-12T22:36:31.187Z,2.17
2023-05-12T22:38:57.940Z,2.20
2023-05-12T22:41:25.043Z,2.22
2023-05-12T22:43:51.792Z,1.88
2023-05-12T22:46:18.634Z,1.98
2023-05-12T22:48:45.704Z,2.15
2023-05-12T22:51:12.401Z,1.63
2023-05-12T22:53:41.817Z,1.90
2023-05-12T22:56:08.682Z,1.70
2023-05-12T22:58:35.437Z,1.98
2023-05-12T23:01:02.337Z,2.10
2023-05-12T23:03:29.270Z,2.40
2023-05-12T23:05:56.136Z,2.10
2023-05-12T23:08:22.865Z,1.90
2023-05-12T23:10:49.639Z,2.05
2023-05-12T23:13:16.382Z,2.00
2023-05-12T23:15:43.070Z,2.00
2023-05-12T23:18:09.830Z,1.95
2023-05-12T23:20:36.562Z,1.90
2023-05-12T23:23:03.225Z,1.80
2023-05-12T23:25:30.263Z,1.95
2023-05-12T23:27:56.981Z,1.92
2023-05-12T23:30:23.829Z,2.00
2023-05-12T23:32:51.117Z,2.10
2023-05-12T23:35:18.023Z,2.00
2023-05-12T23:37:44.769Z,1.60
2023-05-12T23:40:11.938Z,1.92
2023-05-12T23:42:38.592Z,1.60
2023-05-12T23:45:06.451Z,1.77
2023-05-12T23:47:33.292Z,1.63
2023-05-12T23:50:00.085Z,1.40
2023-05-12T23:52:26.861Z,1.40
2023-05-12T23:54:53.695Z,1.60
2023-05-12T23:57:20.378Z,1.20
2023-05-12T23:59:47.071Z,1.45
